»·PEaware :: N5491 KHND-KSNA

N5491 :: KHND-KSNA

FLIGHT INFORMATION

Flight Status: Arrived
Operator: Privately registered:
United States
More flights under this callsign
Pilot: Ben H. (9170)
Aircraft: PIPER PA-32 SARATOGA
(PA32)
More flights by this aircraft type
Origin: KHND Henderson
United States
Destination: KSNA John Wayne-Orange Co
United States
More flights between these airports :: More routes between these airports
Route: +
File this flight plan on PilotEdge
Remarks:
Altitude:
(Current/Filed)
10,500ft
Speed:
(Current/Filed)
0kts
Departed: 08-Nov-19 02:15 PM
Arrived: 08-Nov-19 03:24 PM
Distance/Time
Traveled:
193nm/1:09
Distance/Time
To Go:
Arrived

Flight Plot

Page will automatically refresh every two minutes.

Flight plan parsing failed; only flown route is shown


Map Options




Map Legend


Flown Route
Filed Route
Departure Airport
Arrival Airport
Navaid (VOR, NDB)
Fix

Horizontal Profiles

Position Reports

Time Latitude Longitude Heading Altitude Ground
Speed
08-Nov-19 14:00 35.973101 -115.137680 0 2384ft 0kts
08-Nov-19 14:01 35.973101 -115.137680 0 2384ft 0kts
08-Nov-19 14:02 35.973101 -115.137680 0 2384ft 0kts
08-Nov-19 14:03 35.973101 -115.137680 0 2384ft 0kts
08-Nov-19 14:04 35.973101 -115.137680 0 2384ft 0kts
08-Nov-19 14:05 35.973228 -115.137294 85 2384ft 3kts
08-Nov-19 14:06 35.971817 -115.136950 180 2384ft 8kts
08-Nov-19 14:07 35.969275 -115.137000 180 2385ft 9kts
08-Nov-19 14:08 35.966425 -115.137068 181 2384ft 10kts
08-Nov-19 14:09 35.963493 -115.137050 181 2384ft 10kts
08-Nov-19 14:10 35.963132 -115.136457 88 2384ft 0kts
08-Nov-19 14:11 35.963132 -115.136457 88 2384ft 0kts
08-Nov-19 14:12 35.963132 -115.136452 89 2384ft 0kts
08-Nov-19 14:13 35.963442 -115.135543 6 2384ft 7kts
08-Nov-19 14:14 35.985602 -115.135170 353 2744ft 111kts
08-Nov-19 14:15 35.980731 -115.164772 226 3793ft 112kts
08-Nov-19 14:16 35.955688 -115.186679 183 4695ft 123kts
08-Nov-19 14:17 35.921251 -115.200232 216 5546ft 140kts
08-Nov-19 14:18 35.892236 -115.233779 223 6481ft 142kts
08-Nov-19 14:19 35.864518 -115.268058 223 7469ft 140kts
08-Nov-19 14:20 35.837755 -115.301081 220 8260ft 148kts
08-Nov-19 14:21 35.796458 -115.348118 227 6715ft 211kts
08-Nov-19 14:22 35.762047 -115.396407 231 7337ft 169kts
08-Nov-19 14:23 35.729425 -115.437751 218 7838ft 158kts
08-Nov-19 14:24 35.698812 -115.472508 222 8818ft 144kts
08-Nov-19 14:25 35.671327 -115.506210 223 9787ft 137kts
08-Nov-19 14:26 35.644699 -115.538959 223 10729ft 133kts
08-Nov-19 14:27 35.617275 -115.572524 224 11517ft 147kts
08-Nov-19 14:28 35.587195 -115.609297 224 12270ft 155kts
08-Nov-19 14:29 35.556430 -115.646871 223 13017ft 156kts
08-Nov-19 14:30 35.525747 -115.684348 221 13751ft 155kts
08-Nov-19 14:31 35.495243 -115.721538 221 14486ft 152kts
08-Nov-19 14:32 35.465526 -115.757713 220 15215ft 149kts
08-Nov-19 14:33 35.436185 -115.793347 219 15903ft 149kts
08-Nov-19 14:34 35.405469 -115.830722 219 16349ft 161kts
08-Nov-19 14:35 35.371891 -115.871637 220 16450ft 179kts
08-Nov-19 14:36 35.335380 -115.916154 220 16440ft 190kts
08-Nov-19 14:37 35.297144 -115.962586 220 16446ft 195kts
08-Nov-19 14:38 35.258332 -116.009521 220 16455ft 197kts
08-Nov-19 14:39 35.222458 -116.052864 220 16463ft 197kts
08-Nov-19 14:41 35.183579 -116.099724 220 16473ft 197kts
08-Nov-19 14:42 35.144231 -116.147127 220 16482ft 197kts
08-Nov-19 14:43 35.105136 -116.194128 220 16486ft 197kts
08-Nov-19 14:44 35.066173 -116.240913 220 16486ft 197kts
08-Nov-19 14:45 35.026888 -116.287995 220 16486ft 197kts
08-Nov-19 14:46 34.987711 -116.334795 220 16486ft 197kts
08-Nov-19 14:47 34.948464 -116.381698 220 16486ft 197kts
08-Nov-19 14:48 34.909298 -116.428367 220 16486ft 197kts
08-Nov-19 14:49 34.871272 -116.473728 220 16488ft 196kts
08-Nov-19 14:50 34.832228 -116.520182 221 16504ft 196kts
08-Nov-19 14:51 34.793399 -116.566271 221 16519ft 195kts
08-Nov-19 14:52 34.754206 -116.612838 221 16535ft 195kts
08-Nov-19 14:53 34.716102 -116.658020 220 16548ft 194kts
08-Nov-19 14:54 34.676803 -116.704507 220 16548ft 195kts
08-Nov-19 14:55 34.637877 -116.750561 220 16548ft 195kts
08-Nov-19 14:56 34.599087 -116.796343 220 16548ft 195kts
08-Nov-19 14:57 34.560008 -116.842442 220 16494ft 196kts
08-Nov-19 14:58 34.520951 -116.888423 220 16493ft 195kts
08-Nov-19 14:59 34.482014 -116.934177 220 16484ft 195kts
08-Nov-19 15:00 34.442763 -116.980317 220 16464ft 196kts
08-Nov-19 15:00 34.409849 -117.018881 221 16297ft 203kts
08-Nov-19 15:01 34.368295 -117.067736 221 15651ft 209kts
08-Nov-19 15:03 34.319704 -117.124651 221 14895ft 209kts
08-Nov-19 15:03 34.284746 -117.165426 221 14353ft 208kts
08-Nov-19 15:04 34.242989 -117.214113 222 13706ft 208kts
08-Nov-19 15:06 34.194287 -117.270875 222 12952ft 208kts
08-Nov-19 15:06 34.159750 -117.311041 222 12416ft 206kts
08-Nov-19 15:07 34.118497 -117.358883 222 11768ft 205kts
08-Nov-19 15:08 34.077448 -117.406519 222 11123ft 204kts
08-Nov-19 15:09 34.036770 -117.453569 222 10463ft 198kts
08-Nov-19 15:10 33.998897 -117.497201 222 9563ft 181kts
08-Nov-19 15:11 33.963366 -117.538113 222 8670ft 174kts
08-Nov-19 15:12 33.928852 -117.577962 222 7775ft 166kts
08-Nov-19 15:13 33.897900 -117.613617 223 6613ft 144kts
08-Nov-19 15:14 33.873029 -117.642087 223 5575ft 120kts
08-Nov-19 15:15 33.850605 -117.670626 257 4275ft 117kts
08-Nov-19 15:16 33.856457 -117.709867 276 3670ft 124kts
08-Nov-19 15:17 33.841041 -117.748584 225 3425ft 140kts
08-Nov-19 15:18 33.808593 -117.780262 214 2933ft 158kts
08-Nov-19 15:19 33.770866 -117.807697 207 2256ft 157kts
08-Nov-19 15:20 33.734367 -117.829832 205 1496ft 118kts
08-Nov-19 15:21 33.709617 -117.845416 208 800ft 90kts
08-Nov-19 15:22 33.690053 -117.857785 208 287ft 83kts
08-Nov-19 15:23 33.674339 -117.867771 188 59ft 13kts
08-Nov-19 15:24 33.673839 -117.867382 123 59ft 3kts
08-Nov-19 15:25 33.672323 -117.867990 207 60ft 10kts
08-Nov-19 15:26 33.670848 -117.868121 222 60ft 0kts
08-Nov-19 15:27 33.670846 -117.868124 222 60ft 0kts
08-Nov-19 15:28 33.670846 -117.868124 222 60ft 0kts
08-Nov-19 15:29 33.670846 -117.868124 222 60ft 0kts
08-Nov-19 15:30 33.670846 -117.868124 222 60ft 0kts

Navigation Log

Ident Type
Flight plan parsing failed, navigation log unavailable